Time;durP1;ratioP1;P1;durP2;ratioP2;P2;SDS_P1;SDS_P2;PMS_P1;PMS_P2;Temp;Humidity;BMP_temperature;BMP_pressure;BME280_temperature;BME280_humidity;BME280_pressure;Samples;Min_cycle;Max_cycle;Signal;HPM_P1;HPM_P2
2022/06/25 00:01:40;;;;;;;6.90;1.80;;;;;;;22.07;54.05;100435.72;5042549;28;20045;-70
2022/06/25 00:05:27;;;;;;;7.88;1.95;;;;;;;22.00;55.14;100432.13;5092411;28;20067;-71
2022/06/25 00:06:55;;;;;;;6.57;1.92;;;;;;;21.95;54.35;100427.69;5060021;28;20052;-71
2022/06/25 00:09:23;;;;;;;7.70;1.70;;;;;;;21.87;54.66;100425.25;5064754;28;20649;-69
2022/06/25 00:14:37;;;;;;;7.63;1.70;;;;;;;21.94;55.03;100409.28;5066394;28;20057;-70
2022/06/25 00:17:04;;;;;;;6.78;1.70;;;;;;;21.93;55.21;100418.88;5084822;28;20048;-70
2022/06/25 00:19:31;;;;;;;4.80;1.50;;;;;;;21.79;56.31;100421.63;5076018;28;20044;-72
2022/06/25 00:21:59;;;;;;;9.82;1.55;;;;;;;21.72;56.96;100418.81;5090446;28;20059;-72
2022/06/25 00:24:26;;;;;;;9.18;2.05;;;;;;;21.68;57.31;100425.56;5048742;28;20055;-72
2022/06/25 00:26:53;;;;;;;11.18;2.22;;;;;;;21.77;57.83;100429.63;5077495;28;20054;-72
2022/06/25 00:29:21;;;;;;;10.98;2.38;;;;;;;21.78;58.38;100427.63;5063899;28;20047;-69
2022/06/25 00:31:50;;;;;;;10.35;2.00;;;;;;;21.58;58.99;100424.34;5081126;28;20055;-70
2022/06/25 00:34:17;;;;;;;8.80;2.50;;;;;;;21.45;60.41;100416.66;5063607;28;20069;-70
2022/06/25 00:36:44;;;;;;;7.15;1.60;;;;;;;21.61;60.69;100417.13;5061336;28;20044;-73
2022/06/25 00:39:12;;;;;;;11.52;1.90;;;;;;;21.44;60.81;100413.06;5021357;28;20052;-72
2022/06/25 00:41:40;;;;;;;7.22;1.90;;;;;;;21.40;60.68;100420.66;5059334;28;20402;-72
2022/06/25 00:44:08;;;;;;;10.98;2.38;;;;;;;21.47;60.62;100417.88;5025700;28;20052;-72
2022/06/25 00:46:36;;;;;;;7.35;2.03;;;;;;;21.49;60.88;100421.09;5056217;28;20139;-70
2022/06/25 00:49:04;;;;;;;7.13;2.15;;;;;;;21.41;60.72;100429.88;5058140;28;20053;-70
2022/06/25 00:51:33;;;;;;;7.13;2.20;;;;;;;21.29;60.75;100433.81;5068285;28;20049;-72
2022/06/25 00:54:04;;;;;;;8.43;1.83;;;;;;;21.35;61.15;100426.63;5074570;28;20049;-69
2022/06/25 00:56:34;;;;;;;6.25;1.95;;;;;;;21.29;61.07;100433.03;5068833;28;20095;-70
2022/06/25 00:59:03;;;;;;;6.53;1.92;;;;;;;21.22;61.42;100430.97;5067504;28;20055;-69
2022/06/25 01:01:34;;;;;;;8.90;1.80;;;;;;;21.34;60.79;100433.44;5088639;28;20041;-70
2022/06/25 01:04:02;;;;;;;12.88;2.30;;;;;;;21.26;61.16;100437.41;5075365;28;20059;-70
2022/06/25 01:06:31;;;;;;;10.13;2.67;;;;;;;21.33;61.17;100439.44;5084846;28;20055;-71
2022/06/25 01:08:58;;;;;;;8.70;2.08;;;;;;;21.29;60.90;100435.81;5088452;28;20044;-70
2022/06/25 01:11:25;;;;;;;9.52;2.55;;;;;;;21.33;60.79;100431.03;5060094;28;20503;-70
2022/06/25 01:13:53;;;;;;;6.95;2.05;;;;;;;21.24;61.04;100431.38;5057629;28;20162;-70
2022/06/25 01:16:22;;;;;;;7.50;2.00;;;;;;;21.40;60.25;100429.06;5085247;28;21658;-69
2022/06/25 01:18:51;;;;;;;6.85;2.10;;;;;;;21.50;60.02;100431.09;5054094;28;20054;-70
2022/06/25 01:21:19;;;;;;;6.53;2.33;;;;;;;21.31;60.62;100431.41;5087970;28;20056;-70
2022/06/25 01:23:46;;;;;;;10.23;2.13;;;;;;;21.32;60.82;100440.63;5071561;28;20051;-70
2022/06/25 01:26:13;;;;;;;8.18;1.95;;;;;;;21.24;60.94;100435.00;5067545;28;20053;-68
2022/06/25 01:28:41;;;;;;;6.43;2.03;;;;;;;21.38;60.64;100436.25;5075052;28;20048;-70
2022/06/25 01:31:08;;;;;;;9.32;1.90;;;;;;;21.39;60.59;100444.28;5042163;28;20056;-69
2022/06/25 01:33:35;;;;;;;9.00;2.22;;;;;;;21.35;60.15;100437.84;5022887;28;20045;-73
2022/06/25 01:36:03;;;;;;;4.20;1.88;;;;;;;21.35;60.82;100437.84;5038952;28;20048;-71
2022/06/25 01:38:30;;;;;;;10.02;2.17;;;;;;;21.32;60.39;100441.44;5050464;28;20053;-69
2022/06/25 01:41:01;;;;;;;9.57;2.22;;;;;;;21.21;60.39;100446.19;5046843;28;20049;-70
2022/06/25 01:43:29;;;;;;;8.93;2.00;;;;;;;21.37;60.23;100437.44;5073345;28;20478;-72
2022/06/25 01:45:58;;;;;;;;;;;;;;;21.22;60.05;100439.38;5077104;28;20052;-69
2022/06/25 01:48:26;;;;;;;7.53;2.10;;;;;;;21.14;61.00;100441.34;5076468;28;19947;-70
2022/06/25 01:50:53;;;;;;;7.47;2.00;;;;;;;21.23;61.18;100438.97;5063104;28;20048;-72
2022/06/25 01:53:21;;;;;;;10.20;2.03;;;;;;;21.25;60.79;100442.19;5059640;28;20049;-72
2022/06/25 01:55:48;;;;;;;7.50;1.90;;;;;;;21.33;60.78;100450.63;5066274;28;20048;-72
2022/06/25 01:58:17;;;;;;;12.65;2.05;;;;;;;21.18;60.87;100442.16;5071326;28;20049;-72
2022/06/25 02:00:44;;;;;;;10.15;1.98;;;;;;;21.29;61.14;100445.00;5066992;28;20044;-72
2022/06/25 02:03:14;;;;;;;9.57;1.92;;;;;;;21.18;61.01;100444.16;5068951;28;20040;-71
2022/06/25 02:05:57;;;;;;;7.03;1.63;;;;;;;21.27;61.28;100450.19;5053216;28;20060;-72
2022/06/25 02:08:47;;;;;;;8.77;2.00;;;;;;;21.27;61.75;100459.41;5058707;28;20157;-70
2022/06/25 02:11:17;;;;;;;3.63;1.38;;;;;;;21.27;61.17;100452.22;5076216;28;20044;-70
2022/06/25 02:13:44;;;;;;;14.55;2.10;;;;;;;21.34;61.29;100455.06;5054826;28;20041;-71
2022/06/25 02:16:14;;;;;;;5.60;2.00;;;;;;;21.26;61.88;100457.00;5058562;28;20052;-72
2022/06/25 02:18:43;;;;;;;9.23;1.90;;;;;;;21.31;62.40;100458.63;5059416;28;20048;-69
2022/06/25 02:21:10;;;;;;;7.45;1.77;;;;;;;21.25;62.44;100456.19;5039383;28;20063;-71
2022/06/25 02:23:37;;;;;;;9.68;1.70;;;;;;;21.35;62.47;100456.66;5066196;28;20135;-73
2022/06/25 02:26:05;;;;;;;5.32;1.38;;;;;;;21.15;62.37;100459.75;5068203;28;20056;-72
2022/06/25 02:28:33;;;;;;;6.07;1.30;;;;;;;20.95;63.70;100447.19;5056845;28;20044;-71
2022/06/25 02:31:00;;;;;;;6.32;1.50;;;;;;;21.05;63.33;100449.28;5080316;28;20060;-72
2022/06/25 02:33:28;;;;;;;5.60;1.50;;;;;;;21.08;63.24;100442.06;5087595;28;20055;-72
2022/06/25 02:35:55;;;;;;;9.93;1.75;;;;;;;21.06;63.20;100445.28;5079141;28;20056;-72
2022/06/25 02:38:23;;;;;;;10.30;1.48;;;;;;;20.87;63.54;100445.50;5061459;28;20040;-69
2022/06/25 02:40:52;;;;;;;7.47;1.60;;;;;;;20.96;63.73;100445.16;5051571;28;20047;-70
2022/06/25 02:43:22;;;;;;;;;;;;;;;20.97;64.35;100449.59;5055455;28;20659;-72
2022/06/25 02:46:19;;;;;;;9.57;2.15;;;;;;;21.14;63.85;100455.34;5054051;28;19946;-70
2022/06/25 02:48:53;;;;;;;9.10;1.73;;;;;;;20.97;64.14;100455.97;5047133;28;20366;-69
2022/06/25 02:51:21;;;;;;;8.13;1.75;;;;;;;21.02;64.67;100469.69;5055936;28;20067;-70
2022/06/25 02:53:50;;;;;;;7.43;1.50;;;;;;;21.01;64.93;100465.25;5050794;28;20043;-71
2022/06/25 02:59:08;;;;;;;5.32;1.50;;;;;;;20.99;65.20;100467.63;5026096;28;20071;-70
2022/06/25 03:01:42;;;;;;;5.88;1.55;;;;;;;20.64;66.82;100472.13;5070800;28;20052;-71
2022/06/25 03:04:11;;;;;;;6.15;1.52;;;;;;;20.61;67.41;100470.91;5037136;28;20061;-72
2022/06/25 03:06:39;;;;;;;3.45;1.10;;;;;;;20.79;66.36;100466.25;5027154;28;20051;-73
2022/06/25 03:09:07;;;;;;;8.10;1.42;;;;;;;20.80;66.60;100473.47;5042509;28;20052;-72
2022/06/25 03:11:34;;;;;;;4.60;1.30;;;;;;;20.68;66.13;100482.16;5062937;28;20055;-72
2022/06/25 03:14:02;;;;;;;7.88;1.20;;;;;;;20.54;66.90;100472.84;5065358;28;20048;-71
2022/06/25 03:16:31;;;;;;;3.67;1.15;;;;;;;20.59;66.80;100472.50;5069796;28;20386;-72
2022/06/25 03:19:03;;;;;;;4.88;1.20;;;;;;;20.62;66.33;100466.94;5011795;28;20056;-72
2022/06/25 03:21:30;;;;;;;6.22;1.33;;;;;;;20.61;66.36;100462.50;5067867;28;20056;-71
2022/06/25 03:24:03;;;;;;;4.22;1.00;;;;;;;20.57;66.54;100467.28;5056062;28;20048;-71
2022/06/25 03:26:32;;;;;;;5.53;1.15;;;;;;;20.53;66.11;100463.66;5058463;28;20059;-71
2022/06/25 03:29:02;;;;;;;5.97;1.20;;;;;;;20.57;65.59;100461.69;5073498;28;20044;-73
2022/06/25 03:31:31;;;;;;;6.68;1.00;;;;;;;20.40;66.20;100467.13;5094642;28;20399;-71
2022/06/25 03:34:02;;;;;;;4.47;0.93;;;;;;;20.53;65.85;100472.03;5046592;28;20048;-70
2022/06/25 03:36:48;;;;;;;2.40;1.10;;;;;;;20.45;65.71;100466.78;5045945;28;20040;-70
2022/06/25 03:39:17;;;;;;;4.07;1.02;;;;;;;20.45;65.77;100481.53;5059010;28;20047;-69
2022/06/25 03:41:44;;;;;;;4.32;0.80;;;;;;;20.51;65.48;100485.59;5060209;28;20044;-71
2022/06/25 03:44:34;;;;;;;4.32;0.60;;;;;;;20.52;65.33;100489.22;5067623;28;20546;-71
2022/06/25 03:47:11;;;;;;;4.97;1.13;;;;;;;20.61;65.45;100487.69;5063470;28;20067;-72
2022/06/25 03:49:40;;;;;;;3.60;0.80;;;;;;;20.67;65.24;100493.75;5074228;28;20056;-71
2022/06/25 03:52:16;;;;;;;6.07;0.95;;;;;;;20.73;65.30;100489.41;5073644;28;20059;-69
2022/06/25 03:54:44;;;;;;;1.40;0.68;;;;;;;20.64;65.72;100494.53;5076400;28;20055;-70
2022/06/25 03:57:11;;;;;;;3.08;0.80;;;;;;;20.48;65.61;100482.78;5059839;28;20049;-70
2022/06/25 03:59:52;;;;;;;4.53;0.88;;;;;;;20.69;65.69;100483.78;5036818;28;20052;-69
2022/06/25 04:02:24;;;;;;;4.30;0.85;;;;;;;20.53;65.89;100490.81;5057367;28;20063;-72
2022/06/25 04:05:10;;;;;;;2.22;0.80;;;;;;;20.57;65.53;100486.06;5069984;28;20138;-70
2022/06/25 04:07:38;;;;;;;4.90;0.88;;;;;;;20.54;65.84;100492.44;5065873;28;20044;-70
2022/06/25 04:10:07;;;;;;;4.55;1.20;;;;;;;20.59;65.77;100497.69;5061562;28;20051;-71
2022/06/25 04:12:35;;;;;;;3.35;0.90;;;;;;;20.79;65.32;100493.44;5064288;28;20055;-71
2022/06/25 04:15:03;;;;;;;4.35;1.00;;;;;;;20.66;65.29;100495.72;5070737;28;20041;-70
2022/06/25 04:17:30;;;;;;;4.07;0.98;;;;;;;20.69;65.63;100499.75;5067366;28;20159;-70
2022/06/25 04:19:59;;;;;;;3.30;0.97;;;;;;;20.67;65.49;100491.75;5031233;28;20072;-70
2022/06/25 04:22:27;;;;;;;4.72;0.90;;;;;;;20.60;66.15;100497.28;5045091;28;20059;-70
2022/06/25 04:24:55;;;;;;;4.47;1.13;;;;;;;20.47;66.87;100497.97;5060859;28;20059;-70
2022/06/25 04:30:10;;;;;;;3.15;1.05;;;;;;;20.66;66.64;100501.34;5072366;28;20057;-70
2022/06/25 04:32:40;;;;;;;4.75;1.25;;;;;;;20.61;66.69;100514.88;5045074;28;20049;-71
2022/06/25 04:35:12;;;;;;;4.50;0.90;;;;;;;20.62;67.03;100510.91;5058550;28;20059;-70
2022/06/25 04:37:42;;;;;;;3.63;0.80;;;;;;;20.72;66.75;100512.97;5068281;28;20048;-70
2022/06/25 04:40:12;;;;;;;4.83;1.10;;;;;;;20.66;66.98;100517.34;5057801;28;20057;-71
2022/06/25 04:42:43;;;;;;;3.78;0.98;;;;;;;20.76;66.54;100517.44;5056596;28;20299;-71
2022/06/25 04:45:10;;;;;;;2.15;0.88;;;;;;;20.78;66.54;100517.06;5058882;28;20051;-70
2022/06/25 04:47:50;;;;;;;4.43;0.80;;;;;;;20.77;66.38;100509.81;5060332;28;20047;-69
2022/06/25 04:50:44;;;;;;;6.03;1.00;;;;;;;20.84;66.36;100515.47;5068874;28;20472;-70
2022/06/25 04:53:12;;;;;;;3.03;1.10;;;;;;;20.66;66.94;100517.34;5020980;28;20063;-71
2022/06/25 04:55:39;;;;;;;4.93;1.15;;;;;;;20.57;66.95;100525.25;5045705;28;20044;-70
2022/06/25 04:58:09;;;;;;;3.13;1.00;;;;;;;20.81;66.57;100524.66;5066544;28;20060;-71
2022/06/25 05:00:41;;;;;;;6.30;1.00;;;;;;;20.74;65.79;100525.41;5075836;28;20625;-70
2022/06/25 05:03:10;;;;;;;6.00;1.15;;;;;;;20.78;65.90;100528.25;5090975;28;20044;-70
2022/06/25 05:05:47;;;;;;;4.70;0.95;;;;;;;20.81;65.70;100530.25;5061704;28;20044;-70
2022/06/25 05:08:18;;;;;;;5.68;1.20;;;;;;;20.66;65.95;100529.31;5057365;28;20052;-70
2022/06/25 05:10:46;;;;;;;4.90;1.50;;;;;;;20.78;66.12;100534.63;5038498;28;20048;-71
2022/06/25 05:13:13;;;;;;;5.22;1.10;;;;;;;20.94;65.56;100537.97;5065677;28;20066;-71
2022/06/25 05:15:44;;;;;;;9.18;2.28;;;;;;;20.91;65.29;100543.53;5041128;28;20048;-70
2022/06/25 05:18:12;;;;;;;5.95;1.48;;;;;;;20.78;66.29;100545.03;5073603;28;20079;-70
2022/06/25 05:20:42;;;;;;;7.05;1.10;;;;;;;20.80;66.16;100556.66;5057949;28;20044;-70
2022/06/25 05:23:10;;;;;;;5.15;0.93;;;;;;;20.90;65.37;100555.94;5071206;28;20056;-71
2022/06/25 05:25:39;;;;;;;6.68;1.50;;;;;;;20.84;65.82;100554.69;5057665;28;20044;-69
2022/06/25 05:28:07;;;;;;;4.65;0.93;;;;;;;20.79;65.76;100547.44;5066468;28;20424;-70
2022/06/25 05:30:35;;;;;;;4.70;1.10;;;;;;;20.99;65.46;100559.25;5088189;28;20064;-73
2022/06/25 05:33:02;;;;;;;5.55;1.30;;;;;;;20.83;65.47;100561.47;5063264;28;20078;-72
2022/06/25 05:35:30;;;;;;;5.65;1.20;;;;;;;20.94;65.70;100551.97;5062506;28;20381;-73
2022/06/25 05:38:04;;;;;;;3.65;1.23;;;;;;;21.03;64.38;100554.47;5047824;28;20048;-75
2022/06/25 05:40:32;;;;;;;5.57;1.10;;;;;;;21.00;64.09;100561.69;5045858;28;20127;-73
2022/06/25 05:42:59;;;;;;;4.38;1.27;;;;;;;21.32;64.10;100564.72;5073572;28;20078;-72
2022/06/25 05:45:27;;;;;;;5.50;1.38;;;;;;;21.26;62.90;100560.66;5075869;28;20044;-71
2022/06/25 05:47:54;;;;;;;3.72;1.10;;;;;;;21.42;62.70;100561.19;5074375;28;20638;-72
2022/06/25 05:50:21;;;;;;;4.78;1.33;;;;;;;21.37;62.84;100550.34;5073274;28;20056;-71
2022/06/25 05:52:49;;;;;;;4.10;1.00;;;;;;;21.61;61.81;100551.69;5062880;28;20060;-75
2022/06/25 05:55:16;;;;;;;6.68;1.35;;;;;;;21.35;61.20;100549.94;5071306;28;20051;-74
2022/06/25 05:57:44;;;;;;;5.40;1.20;;;;;;;20.97;61.95;100553.22;5083031;28;20513;-77
2022/06/25 06:00:12;;;;;;;4.47;1.30;;;;;;;21.24;61.87;100554.66;5042599;28;20040;-75
2022/06/25 06:02:39;;;;;;;3.15;1.20;;;;;;;21.13;61.01;100551.75;5077445;28;20060;-73
2022/06/25 06:05:07;;;;;;;4.85;1.25;;;;;;;21.17;61.60;100557.41;5077559;28;20040;-72
2022/06/25 06:07:34;;;;;;;3.28;1.08;;;;;;;21.51;61.99;100556.06;5051820;28;20068;-72
2022/06/25 06:10:04;;;;;;;4.97;1.17;;;;;;;21.35;60.35;100551.91;5075072;28;20086;-73
2022/06/25 06:12:31;;;;;;;6.50;1.67;;;;;;;21.33;61.01;100554.31;5085487;28;20524;-73
2022/06/25 06:14:58;;;;;;;5.25;1.27;;;;;;;21.50;60.54;100562.84;5090993;28;20051;-72
2022/06/25 06:17:26;;;;;;;6.00;1.08;;;;;;;21.45;60.93;100566.00;5067845;28;20045;-73
2022/06/25 06:19:53;;;;;;;5.68;1.13;;;;;;;21.65;60.80;100566.53;5075523;28;20051;-74
2022/06/25 06:22:21;;;;;;;4.57;1.20;;;;;;;21.72;60.54;100567.41;5077358;28;20044;-72
2022/06/25 06:24:48;;;;;;;5.57;1.25;;;;;;;21.43;61.48;100568.41;5081500;28;20044;-73
2022/06/25 06:27:16;;;;;;;6.22;1.50;;;;;;;21.45;61.15;100563.22;5061021;28;20488;-73
2022/06/25 06:29:43;;;;;;;3.78;1.20;;;;;;;21.47;60.71;100557.22;5059261;28;20433;-73
2022/06/25 06:32:11;;;;;;;7.43;1.52;;;;;;;21.39;59.78;100573.19;5034391;28;20394;-75
2022/06/25 06:34:38;;;;;;;5.05;1.10;;;;;;;21.24;59.72;100561.06;5066883;28;20052;-73
2022/06/25 06:37:05;;;;;;;5.47;1.35;;;;;;;21.32;60.43;100575.13;5070178;28;20428;-74
2022/06/25 06:39:33;;;;;;;6.78;1.40;;;;;;;21.31;60.83;100574.31;5076315;28;20060;-73
2022/06/25 06:42:00;;;;;;;7.50;1.40;;;;;;;21.48;61.03;100582.03;5056596;28;20048;-73
2022/06/25 06:44:27;;;;;;;6.03;1.33;;;;;;;21.56;61.17;100574.50;5089826;28;20051;-72
2022/06/25 06:46:55;;;;;;;6.32;1.40;;;;;;;21.74;61.57;100562.19;5059065;28;20487;-72
2022/06/25 06:49:22;;;;;;;4.75;1.20;;;;;;;21.56;60.90;100566.09;5086306;28;20052;-75
2022/06/25 06:51:49;;;;;;;4.85;1.25;;;;;;;21.64;60.77;100571.34;5078063;28;20055;-76
2022/06/25 06:54:17;;;;;;;5.70;1.50;;;;;;;21.60;59.92;100578.91;5079618;28;20058;-72
2022/06/25 06:56:44;;;;;;;4.07;1.15;;;;;;;21.41;60.47;100573.56;5033260;28;20053;-71
2022/06/25 06:59:12;;;;;;;4.40;1.00;;;;;;;21.53;60.01;100581.66;5027574;28;20055;-72
2022/06/25 07:01:41;;;;;;;10.20;1.80;;;;;;;21.51;59.08;100574.88;5077906;28;20357;-74
2022/06/25 07:04:11;;;;;;;6.60;1.52;;;;;;;21.51;59.15;100583.28;5074016;28;20048;-73
2022/06/25 07:06:39;;;;;;;5.50;1.42;;;;;;;21.61;58.72;100577.72;5073041;28;20067;-73
2022/06/25 07:09:06;;;;;;;13.20;7.32;;;;;;;21.52;58.19;100571.66;5062717;28;20049;-72
2022/06/25 07:11:34;;;;;;;6.72;2.40;;;;;;;21.48;58.39;100576.44;5081978;28;20523;-76
2022/06/25 07:14:06;;;;;;;7.80;2.00;;;;;;;21.56;58.27;100580.91;5085783;28;20071;-73
2022/06/25 07:16:34;;;;;;;7.30;2.40;;;;;;;21.44;58.02;100581.22;5074423;28;20048;-71
2022/06/25 07:19:02;;;;;;;7.53;2.03;;;;;;;21.63;58.84;100582.94;5056277;28;20052;-71
2022/06/25 07:21:29;;;;;;;5.03;1.52;;;;;;;21.74;57.28;100589.44;5051855;28;20060;-74
2022/06/25 07:23:58;;;;;;;7.00;1.67;;;;;;;21.80;56.91;100596.28;5074411;28;20055;-73
2022/06/25 07:26:26;;;;;;;4.93;1.33;;;;;;;21.95;55.75;100584.75;5067261;28;20041;-71
2022/06/25 07:28:55;;;;;;;5.22;1.67;;;;;;;21.99;55.41;100587.59;5071107;28;20052;-71
2022/06/25 07:31:23;;;;;;;5.97;1.58;;;;;;;22.20;54.98;100591.28;5084588;28;20044;-69
2022/06/25 07:33:51;;;;;;;7.47;1.55;;;;;;;22.48;55.22;100578.53;5053590;28;20055;-66
2022/06/25 07:36:18;;;;;;;6.07;1.30;;;;;;;21.94;55.05;100593.56;5075079;28;20048;-69
2022/06/25 07:38:47;;;;;;;6.50;1.50;;;;;;;22.10;55.12;100597.66;5073913;28;20379;-68
2022/06/25 07:41:14;;;;;;;14.25;5.57;;;;;;;22.50;54.85;100604.22;5064178;28;20068;-71
2022/06/25 07:43:42;;;;;;;12.75;3.30;;;;;;;22.66;54.45;100594.28;5068612;28;20048;-70
2022/06/25 07:46:09;;;;;;;6.38;2.10;;;;;;;22.76;53.51;100593.50;5038892;28;20045;-71
2022/06/25 07:48:37;;;;;;;7.13;1.50;;;;;;;22.51;53.73;100592.59;5054450;28;20083;-73
2022/06/25 07:53:51;;;;;;;5.82;1.50;;;;;;;22.04;53.34;100604.03;5065059;28;20055;-69
2022/06/25 07:56:18;;;;;;;9.05;1.48;;;;;;;21.81;53.90;100603.53;5076211;28;20052;-67
2022/06/25 07:58:46;;;;;;;9.80;2.28;;;;;;;22.23;54.38;100612.13;5077352;28;20047;-69
2022/06/25 08:01:13;;;;;;;6.72;1.77;;;;;;;22.29;53.84;100616.19;5078208;28;20440;-68
2022/06/25 08:03:41;;;;;;;6.82;1.45;;;;;;;21.66;54.04;100616.63;5082323;28;20059;-68
2022/06/25 08:06:10;;;;;;;10.90;3.38;;;;;;;22.11;54.32;100609.69;5072842;28;20048;-67
2022/06/25 08:08:38;;;;;;;8.00;2.83;;;;;;;22.06;53.79;100608.06;5072100;28;20119;-70
2022/06/25 08:11:06;;;;;;;6.82;2.80;;;;;;;22.27;54.32;100602.56;5071180;28;20135;-68
2022/06/25 08:13:34;;;;;;;6.03;1.77;;;;;;;22.42;53.50;100611.03;5077827;28;20061;-71
2022/06/25 08:16:01;;;;;;;8.60;1.52;;;;;;;22.70;53.28;100609.13;5070119;28;20045;-67
2022/06/25 08:18:28;;;;;;;6.32;1.50;;;;;;;22.69;52.77;100613.13;5057676;28;20431;-68
2022/06/25 08:20:56;;;;;;;7.82;1.90;;;;;;;22.60;52.77;100611.91;5089496;28;20052;-69
2022/06/25 08:23:23;;;;;;;6.85;1.65;;;;;;;22.57;52.16;100609.88;5070221;28;20056;-68
2022/06/25 08:25:51;;;;;;;7.72;1.70;;;;;;;22.53;52.75;100611.84;5061470;28;20369;-69
2022/06/25 08:28:18;;;;;;;8.15;2.05;;;;;;;22.54;52.97;100625.53;5069892;28;20053;-69
2022/06/25 08:30:45;;;;;;;10.98;2.38;;;;;;;22.63;53.16;100625.94;5070502;28;20052;-69
2022/06/25 08:33:14;;;;;;;6.80;2.10;;;;;;;22.67;52.04;100629.56;5059047;28;20079;-70
2022/06/25 08:35:42;;;;;;;6.20;1.42;;;;;;;22.47;51.04;100636.72;5064852;28;20055;-71
2022/06/25 08:38:09;;;;;;;7.20;1.67;;;;;;;22.73;50.98;100638.41;5074314;28;20059;-68
2022/06/25 08:40:37;;;;;;;7.43;1.60;;;;;;;22.66;49.03;100646.81;5045762;28;20171;-70
2022/06/25 08:43:10;;;;;;;6.47;1.60;;;;;;;22.75;49.53;100641.66;5051077;28;20059;-70
2022/06/25 08:45:38;;;;;;;6.25;1.42;;;;;;;22.66;49.27;100636.41;5042889;28;20529;-69
2022/06/25 08:48:11;;;;;;;6.85;1.45;;;;;;;22.57;48.39;100638.78;5057184;28;20053;-72
2022/06/25 08:50:39;;;;;;;7.97;1.70;;;;;;;22.64;48.94;100638.81;5059080;28;20055;-68
2022/06/25 08:53:07;;;;;;;8.30;2.17;;;;;;;22.63;48.73;100637.19;5049277;28;20048;-71
2022/06/25 08:55:36;;;;;;;9.48;1.65;;;;;;;22.61;48.98;100641.59;5064899;28;20056;-69
2022/06/25 08:58:05;;;;;;;9.97;1.83;;;;;;;22.68;49.43;100641.63;5068894;28;20624;-71
2022/06/25 09:00:34;;;;;;;7.22;1.63;;;;;;;22.49;49.91;100651.13;5057560;28;20063;-70
2022/06/25 09:03:05;;;;;;;7.07;1.85;;;;;;;22.54;50.08;100649.97;5086672;28;20056;-69
2022/06/25 09:05:35;;;;;;;13.68;1.75;;;;;;;22.56;50.11;100645.56;5058871;28;20049;-68
2022/06/25 09:08:05;;;;;;;5.97;1.50;;;;;;;22.56;50.53;100650.41;5075318;28;20053;-68
2022/06/25 09:10:32;;;;;;;;;;;;;;;22.65;50.93;100650.84;5037892;28;20052;-69
2022/06/25 09:13:03;;;;;;;8.80;2.15;;;;;;;22.57;51.58;100647.19;5057950;28;19933;-68
2022/06/25 09:15:38;;;;;;;9.85;2.05;;;;;;;22.56;52.22;100645.56;5064740;28;20404;-68
2022/06/25 09:18:13;;;;;;;7.40;2.00;;;;;;;22.73;52.33;100644.03;5043474;28;20059;-68
2022/06/25 09:21:07;;;;;;;9.02;2.03;;;;;;;22.83;52.61;100632.03;5067988;28;20052;-69
2022/06/25 09:23:36;;;;;;;7.22;1.70;;;;;;;22.95;52.24;100626.03;5052440;28;20056;-68
2022/06/25 09:26:08;;;;;;;9.80;1.95;;;;;;;22.84;52.13;100628.03;5080944;28;20036;-69
2022/06/25 09:28:41;;;;;;;6.13;1.48;;;;;;;22.61;52.20;100630.38;5059920;28;20044;-71
2022/06/25 09:31:08;;;;;;;8.45;1.73;;;;;;;22.60;52.35;100623.94;5072672;28;20049;-69
2022/06/25 09:33:38;;;;;;;11.07;2.65;;;;;;;22.68;52.01;100619.97;5075296;28;20048;-69
2022/06/25 09:36:09;;;;;;;9.20;3.35;;;;;;;22.67;52.50;100620.34;5073377;28;20051;-69
2022/06/25 09:38:49;;;;;;;7.13;2.92;;;;;;;22.61;52.78;100616.31;5089665;28;20057;-68
2022/06/25 09:41:17;;;;;;;7.85;1.92;;;;;;;22.65;52.79;100617.94;5061643;28;20041;-67
2022/06/25 09:43:47;;;;;;;6.45;1.60;;;;;;;22.58;51.87;100617.91;5046892;28;20040;-68
2022/06/25 09:46:15;;;;;;;6.28;1.73;;;;;;;22.68;51.51;100619.97;5079073;28;20476;-68
2022/06/25 09:48:43;;;;;;;7.40;1.85;;;;;;;22.28;50.67;100620.19;5073152;28;20115;-69
2022/06/25 09:51:23;;;;;;;6.78;1.75;;;;;;;22.05;51.03;100623.31;5073446;28;20059;-69
2022/06/25 09:53:56;;;;;;;8.65;2.00;;;;;;;22.26;51.13;100631.00;5076744;28;20052;-69
2022/06/25 09:56:29;;;;;;;9.15;2.13;;;;;;;22.29;50.15;100630.22;5072481;28;20048;-69
2022/06/25 09:58:57;;;;;;;6.53;1.60;;;;;;;22.57;49.91;100632.34;5074950;28;20135;-69
2022/06/25 10:01:32;;;;;;;9.60;3.05;;;;;;;22.49;49.66;100628.69;5042991;28;20060;-69
2022/06/25 10:04:02;;;;;;;8.73;3.28;;;;;;;22.54;49.34;100627.50;5086386;28;20044;-70
2022/06/25 10:06:33;;;;;;;;;;;;;;;22.60;49.21;100625.94;5042773;28;20072;-69
2022/06/25 10:09:04;;;;;;;10.82;2.08;;;;;;;22.52;49.90;100624.28;5058125;28;19926;-72
2022/06/25 10:11:37;;;;;;;7.95;1.90;;;;;;;22.72;49.85;100615.16;5071331;28;20094;-70
2022/06/25 10:14:05;;;;;;;9.15;1.70;;;;;;;22.84;49.45;100616.78;5036885;28;20057;-71
2022/06/25 10:16:33;;;;;;;6.18;1.60;;;;;;;22.74;48.67;100623.16;5065515;28;20052;-73
2022/06/25 10:19:03;;;;;;;10.73;1.90;;;;;;;22.71;48.64;100615.53;5031413;28;20072;-73
2022/06/25 10:21:31;;;;;;;7.15;1.58;;;;;;;22.78;49.00;100615.56;5073321;28;20519;-71
2022/06/25 10:24:04;;;;;;;9.38;3.78;;;;;;;22.75;48.85;100611.53;5079907;28;20063;-72
2022/06/25 10:26:32;;;;;;;8.00;2.80;;;;;;;22.88;48.98;100603.53;5067687;28;20052;-70
2022/06/25 10:29:04;;;;;;;7.75;2.13;;;;;;;23.02;48.70;100600.75;5036112;28;20071;-72
2022/06/25 10:31:31;;;;;;;12.65;2.42;;;;;;;23.14;48.29;100605.97;5087644;28;20079;-70
2022/06/25 10:34:04;;;;;;;13.57;4.72;;;;;;;23.18;48.40;100609.59;5077176;28;20056;-68
2022/06/25 10:36:46;;;;;;;6.07;1.95;;;;;;;23.11;48.33;100612.41;5054851;28;20040;-68
2022/06/25 10:39:22;;;;;;;6.38;1.77;;;;;;;22.63;49.07;100611.91;5058053;28;20055;-67
2022/06/25 10:45:04;;;;;;;5.57;1.52;;;;;;;23.08;49.16;100599.94;5036554;28;20053;-67
2022/06/25 10:47:59;;;;;;;6.93;1.58;;;;;;;22.83;48.95;100601.13;5075723;28;20044;-68
2022/06/25 10:50:28;;;;;;;8.98;1.77;;;;;;;22.75;49.30;100600.28;5072997;28;20419;-68
2022/06/25 10:53:02;;;;;;;8.93;2.35;;;;;;;22.95;48.83;100609.16;5078530;28;20044;-68
2022/06/25 10:55:30;;;;;;;8.43;1.80;;;;;;;22.83;49.11;100609.53;5080469;28;20048;-69
2022/06/25 10:58:14;;;;;;;9.93;1.75;;;;;;;23.04;49.25;100603.97;5074419;28;20045;-69
2022/06/25 11:01:01;;;;;;;5.97;1.42;;;;;;;23.14;49.05;100614.41;5073111;28;20110;-68
2022/06/25 11:03:29;;;;;;;8.75;1.70;;;;;;;23.17;49.41;100608.00;5091004;28;20117;-68
2022/06/25 11:05:57;;;;;;;8.80;2.15;;;;;;;23.07;49.16;100605.97;5090547;28;20048;-67
2022/06/25 11:08:35;;;;;;;9.77;2.45;;;;;;;23.16;48.90;100601.56;5059496;28;20052;-69
2022/06/25 11:11:03;;;;;;;7.88;2.58;;;;;;;23.09;49.03;100610.00;5074639;28;20552;-70
2022/06/25 11:13:30;;;;;;;8.05;1.98;;;;;;;23.09;49.20;100600.75;5054573;28;20045;-69
2022/06/25 11:15:58;;;;;;;11.40;2.20;;;;;;;23.21;49.84;100614.41;5079714;28;20043;-70
2022/06/25 11:18:26;;;;;;;6.60;1.90;;;;;;;23.15;49.40;100611.19;5065901;28;20460;-70
2022/06/25 11:20:53;;;;;;;5.35;1.55;;;;;;;22.64;49.33;100618.34;5072945;28;20052;-70
2022/06/25 11:23:20;;;;;;;7.13;1.92;;;;;;;22.78;49.81;100612.75;5077299;28;20048;-69
2022/06/25 11:28:48;;;;;;;8.18;2.00;;;;;;;22.87;48.76;100621.59;5079845;28;20475;-69
2022/06/25 11:31:20;;;;;;;6.45;2.13;;;;;;;22.71;49.03;100623.97;5063186;28;20052;-68
2022/06/25 11:33:51;;;;;;;6.80;1.42;;;;;;;22.93;48.97;100620.81;5071870;28;20056;-70
2022/06/25 11:36:19;;;;;;;6.35;2.95;;;;;;;22.66;48.82;100630.78;5079102;28;20049;-68
2022/06/25 11:38:52;;;;;;;7.85;1.80;;;;;;;22.52;49.64;100630.72;5070279;28;20048;-70
2022/06/25 11:41:28;;;;;;;7.65;1.50;;;;;;;22.65;48.67;100629.16;5073224;28;20079;-69
2022/06/25 11:43:56;;;;;;;5.00;1.92;;;;;;;22.79;48.92;100612.34;5069827;28;20049;-70
2022/06/25 11:46:23;;;;;;;6.75;1.95;;;;;;;22.86;48.20;100619.97;5083650;28;20468;-70
2022/06/25 11:48:51;;;;;;;5.45;1.52;;;;;;;22.82;47.91;100619.19;5081895;28;20048;-70
2022/06/25 11:51:26;;;;;;;7.47;1.80;;;;;;;22.89;48.05;100622.00;5063207;28;20063;-70
2022/06/25 11:53:53;;;;;;;13.43;6.40;;;;;;;23.05;48.74;100614.78;5082710;28;20044;-71